Time,TemperatureF,DewpointF,PressureIn,WindDirection,WindDirectionDegrees,WindSpeedMPH,WindSpeedGustMPH,Humidity,HourlyPrecipIn,Conditions,Clouds,dailyrainin,SolarRadiationWatts/m^2,SoftwareType,DateUTC
2013-05-09 00:01:00,55.0,37.0,-100.00,SE,135,5.0,6.0,51,0.00,,,0.00,0.000000,,2013-05-09 06:01:00,
2013-05-09 00:11:00,55.0,37.0,-100.00,SE,135,5.0,6.0,51,0.00,,,0.00,0.000000,,2013-05-09 06:11:00,
2013-05-09 00:42:00,50.0,36.0,-100.00,SSE,158,3.0,6.0,59,0.00,,,0.00,0.000000,,2013-05-09 06:42:00,
2013-05-09 00:52:00,50.0,36.0,-100.00,SSE,158,3.0,6.0,59,0.00,,,0.00,0.000000,,2013-05-09 06:52:00,
2013-05-09 01:01:00,50.0,36.0,-100.00,SSE,158,3.0,6.0,59,0.00,,,0.00,0.000000,,2013-05-09 07:01:00,
2013-05-09 01:12:00,50.0,36.0,-100.00,SSE,158,3.0,6.0,59,0.00,,,0.00,0.000000,,2013-05-09 07:12:00,
2013-05-09 01:43:00,49.0,40.0,-100.00,SSW,211,2.0,4.0,70,0.00,,,0.00,0.000000,,2013-05-09 07:43:00,
2013-05-09 01:52:00,49.0,40.0,-100.00,SSW,211,2.0,4.0,70,0.00,,,0.00,0.000000,,2013-05-09 07:52:00,
2013-05-09 02:02:00,49.0,40.0,-100.00,SSW,211,2.0,4.0,70,0.00,,,0.00,0.000000,,2013-05-09 08:02:00,
2013-05-09 02:11:00,49.0,40.0,-100.00,SSW,211,2.0,4.0,70,0.00,,,0.00,0.000000,,2013-05-09 08:11:00,
2013-05-09 02:42:00,46.0,38.0,-100.00,SSE,163,0.0,2.0,73,0.00,,,0.00,0.000000,,2013-05-09 08:42:00,
2013-05-09 02:52:00,46.0,38.0,-100.00,SSE,163,0.0,2.0,73,0.00,,,0.00,0.000000,,2013-05-09 08:52:00,
2013-05-09 03:02:00,46.0,38.0,-100.00,SSE,163,0.0,2.0,73,0.00,,,0.00,0.000000,,2013-05-09 09:02:00,
2013-05-09 03:11:00,46.0,38.0,-100.00,SSE,163,0.0,2.0,73,0.00,,,0.00,0.000000,,2013-05-09 09:11:00,
2013-05-09 03:32:00,42.0,38.0,-100.00,SSE,163,0.0,3.0,87,0.00,,,0.00,0.000000,,2013-05-09 09:32:00,
2013-05-09 03:43:00,42.0,38.0,-100.00,SSE,163,0.0,3.0,87,0.00,,,0.00,0.000000,,2013-05-09 09:43:00,
2013-05-09 03:53:00,42.0,38.0,-100.00,SSE,163,0.0,3.0,87,0.00,,,0.00,0.000000,,2013-05-09 09:53:00,
2013-05-09 04:02:00,42.0,38.0,-100.00,SSE,163,0.0,3.0,87,0.00,,,0.00,0.000000,,2013-05-09 10:02:00,
2013-05-09 04:12:00,42.0,38.0,-100.00,SSE,163,0.0,3.0,87,0.00,,,0.00,0.000000,,2013-05-09 10:12:00,
2013-05-09 04:42:00,41.0,39.0,-100.00,South,183,2.0,4.0,94,0.00,,,0.00,0.000000,,2013-05-09 10:42:00,
2013-05-09 04:52:00,41.0,39.0,-100.00,South,183,2.0,4.0,94,0.00,,,0.00,0.000000,,2013-05-09 10:52:00,
2013-05-09 05:02:00,41.0,39.0,-100.00,South,183,2.0,4.0,94,0.00,,,0.00,0.000000,,2013-05-09 11:02:00,
2013-05-09 05:12:00,41.0,39.0,-100.00,South,183,2.0,4.0,94,0.00,,,0.00,0.000000,,2013-05-09 11:12:00,
2013-05-09 05:32:00,40.0,37.0,-100.00,West,265,1.0,4.0,90,0.00,,,0.00,0.000000,,2013-05-09 11:32:00,
2013-05-09 05:42:00,40.0,37.0,-100.00,West,265,1.0,4.0,90,0.00,,,0.00,0.000000,,2013-05-09 11:42:00,
2013-05-09 05:52:00,40.0,37.0,-100.00,West,265,1.0,4.0,90,0.00,,,0.00,0.000000,,2013-05-09 11:52:00,
2013-05-09 06:01:00,40.0,37.0,-100.00,West,265,1.0,4.0,90,0.00,,,0.00,0.000000,,2013-05-09 12:01:00,
2013-05-09 06:11:00,40.0,37.0,-100.00,West,265,1.0,4.0,90,0.00,,,0.00,0.000000,,2013-05-09 12:11:00,
2013-05-09 06:42:00,38.0,36.0,-100.00,ESE,102,2.0,3.0,91,0.00,,,-99.99,1.000000,,2013-05-09 12:42:00,
2013-05-09 06:52:00,38.0,36.0,-100.00,ESE,102,2.0,3.0,91,0.00,,,-99.99,1.000000,,2013-05-09 12:52:00,
2013-05-09 07:01:00,38.0,36.0,-100.00,ESE,102,2.0,3.0,91,0.00,,,-99.99,1.000000,,2013-05-09 13:01:00,
2013-05-09 07:12:00,38.0,36.0,-100.00,ESE,102,2.0,3.0,91,0.00,,,-99.99,1.000000,,2013-05-09 13:12:00,
2013-05-09 07:32:00,43.0,38.0,-100.00,NW,326,1.0,4.0,82,0.00,,,0.00,47.000000,,2013-05-09 13:32:00,
2013-05-09 07:42:00,43.0,38.0,-100.00,NW,326,1.0,4.0,82,0.00,,,0.00,47.000000,,2013-05-09 13:42:00,
2013-05-09 07:52:00,43.0,38.0,-100.00,NW,326,1.0,4.0,82,0.00,,,0.00,47.000000,,2013-05-09 13:52:00,
2013-05-09 08:01:00,43.0,38.0,-100.00,NW,326,1.0,4.0,82,0.00,,,0.00,47.000000,,2013-05-09 14:01:00,
2013-05-09 08:11:00,43.0,38.0,-100.00,NW,326,1.0,4.0,82,0.00,,,0.00,47.000000,,2013-05-09 14:11:00,
2013-05-09 08:32:00,53.0,45.0,-100.00,NW,317,0.0,2.0,73,0.00,,,0.00,186.000000,,2013-05-09 14:32:00,
2013-05-09 08:52:00,53.0,45.0,-100.00,NW,317,0.0,2.0,73,0.00,,,0.00,186.000000,,2013-05-09 14:52:00,
2013-05-09 09:01:00,53.0,45.0,-100.00,NW,317,0.0,2.0,73,0.00,,,0.00,186.000000,,2013-05-09 15:01:00,
2013-05-09 09:11:00,53.0,45.0,-100.00,NW,317,0.0,2.0,73,0.00,,,0.00,186.000000,,2013-05-09 15:11:00,
2013-05-09 09:43:00,58.0,43.0,-100.00,West,281,2.0,4.0,57,0.00,,,0.00,342.000000,,2013-05-09 15:43:00,
2013-05-09 10:12:00,58.0,43.0,-100.00,West,281,2.0,4.0,57,0.00,,,0.00,342.000000,,2013-05-09 16:12:00,
2013-05-09 10:42:00,64.0,43.0,-100.00,NNW,327,2.0,5.0,46,0.00,,,0.00,505.000000,,2013-05-09 16:42:00,
2013-05-09 10:53:00,64.0,43.0,-100.00,NNW,327,2.0,5.0,46,0.00,,,0.00,505.000000,,2013-05-09 16:53:00,
2013-05-09 11:02:00,64.0,43.0,-100.00,NNW,327,2.0,5.0,46,0.00,,,0.00,505.000000,,2013-05-09 17:02:00,
2013-05-09 11:12:00,64.0,43.0,-100.00,NNW,327,2.0,5.0,46,0.00,,,0.00,505.000000,,2013-05-09 17:12:00,
2013-05-09 11:32:00,70.0,43.0,-100.00,East,96,3.0,5.0,37,0.00,,,0.00,726.000000,,2013-05-09 17:32:00,
2013-05-09 12:12:00,70.0,43.0,-100.00,East,96,3.0,5.0,37,0.00,,,0.00,726.000000,,2013-05-09 18:12:00,
2013-05-09 12:42:00,76.0,43.0,-100.00,ENE,68,2.0,6.0,31,0.00,,,0.00,723.000000,,2013-05-09 18:42:00,
2013-05-09 12:52:00,76.0,43.0,-100.00,ENE,68,2.0,6.0,31,0.00,,,0.00,723.000000,,2013-05-09 18:52:00,
2013-05-09 13:11:00,76.0,43.0,-100.00,ENE,68,2.0,6.0,31,0.00,,,0.00,723.000000,,2013-05-09 19:11:00,
2013-05-09 14:32:00,76.0,41.0,-100.00,West,276,6.0,11.0,29,-99.99,,,0.00,688.000000,,2013-05-09 20:32:00,
2013-05-09 14:42:00,76.0,41.0,-100.00,West,276,6.0,11.0,29,-99.99,,,0.00,688.000000,,2013-05-09 20:42:00,
2013-05-09 14:52:00,76.0,41.0,-100.00,West,276,6.0,11.0,29,-99.99,,,0.00,688.000000,,2013-05-09 20:52:00,
2013-05-09 15:01:00,76.0,41.0,-100.00,West,276,6.0,11.0,29,-99.99,,,0.00,688.000000,,2013-05-09 21:01:00,
2013-05-09 15:11:00,76.0,41.0,-100.00,West,276,6.0,11.0,29,-99.99,,,0.00,688.000000,,2013-05-09 21:11:00,
2013-05-09 16:33:00,76.0,43.0,-100.00,SSW,202,4.0,7.0,31,-99.99,,,0.00,344.000000,,2013-05-09 22:33:00,
2013-05-09 16:42:00,76.0,43.0,-100.00,SSW,202,4.0,7.0,31,-99.99,,,0.00,344.000000,,2013-05-09 22:42:00,
2013-05-09 16:52:00,76.0,43.0,-100.00,SSW,202,4.0,7.0,31,-99.99,,,0.00,344.000000,,2013-05-09 22:52:00,
2013-05-09 17:02:00,76.0,43.0,-100.00,SSW,202,4.0,7.0,31,-99.99,,,0.00,344.000000,,2013-05-09 23:02:00,
2013-05-09 17:11:00,76.0,43.0,-100.00,SSW,202,4.0,7.0,31,-99.99,,,0.00,344.000000,,2013-05-09 23:11:00,
2013-05-09 17:32:00,72.0,45.0,-100.00,NNE,22,1.0,8.0,38,0.00,,,0.00,145.000000,,2013-05-09 23:32:00,
2013-05-09 17:52:00,72.0,45.0,-100.00,NNE,22,1.0,8.0,38,0.00,,,0.00,145.000000,,2013-05-09 23:52:00,
2013-05-09 18:01:00,72.0,45.0,-100.00,NNE,22,1.0,8.0,38,0.00,,,0.00,145.000000,,2013-05-10 00:01:00,
2013-05-09 18:11:00,72.0,45.0,-100.00,NNE,22,1.0,8.0,38,0.00,,,0.00,145.000000,,2013-05-10 00:11:00,
2013-05-09 19:32:00,76.0,48.0,-100.00,WNW,288,3.0,6.0,37,-99.99,,,0.00,250.000000,,2013-05-10 01:32:00,
2013-05-09 19:42:00,76.0,48.0,-100.00,WNW,288,3.0,6.0,37,-99.99,,,0.00,250.000000,,2013-05-10 01:42:00,
2013-05-09 19:52:00,76.0,48.0,-100.00,WNW,288,3.0,6.0,37,-99.99,,,0.00,250.000000,,2013-05-10 01:52:00,
2013-05-09 20:01:00,76.0,48.0,-100.00,WNW,288,3.0,6.0,37,-99.99,,,0.00,250.000000,,2013-05-10 02:01:00,
2013-05-09 20:11:00,76.0,48.0,-100.00,WNW,288,3.0,6.0,37,-99.99,,,0.00,250.000000,,2013-05-10 02:11:00,
2013-05-09 20:32:00,68.0,38.0,-100.00,SSE,162,4.0,7.0,33,0.00,,,0.00,184.000000,,2013-05-10 02:32:00,
2013-05-09 20:42:00,68.0,38.0,-100.00,SSE,162,4.0,7.0,33,0.00,,,0.00,184.000000,,2013-05-10 02:42:00,
2013-05-09 20:52:00,68.0,38.0,-100.00,SSE,162,4.0,7.0,33,0.00,,,0.00,184.000000,,2013-05-10 02:52:00,
2013-05-09 21:01:00,68.0,38.0,-100.00,SSE,162,4.0,7.0,33,0.00,,,0.00,184.000000,,2013-05-10 03:01:00,
2013-05-09 21:11:00,68.0,38.0,-100.00,SSE,162,4.0,7.0,33,0.00,,,0.00,184.000000,,2013-05-10 03:11:00,
2013-05-09 21:33:00,63.0,40.0,-100.00,South,180,2.0,6.0,43,0.00,,,0.00,12.000000,,2013-05-10 03:33:00,
2013-05-09 21:43:00,63.0,40.0,-100.00,South,180,2.0,6.0,43,0.00,,,0.00,12.000000,,2013-05-10 03:43:00,
2013-05-09 21:53:00,63.0,40.0,-100.00,South,180,2.0,6.0,43,0.00,,,0.00,12.000000,,2013-05-10 03:53:00,
2013-05-09 22:02:00,63.0,40.0,-100.00,South,180,2.0,6.0,43,0.00,,,0.00,12.000000,,2013-05-10 04:02:00,
2013-05-09 22:12:00,63.0,40.0,-100.00,South,180,2.0,6.0,43,0.00,,,0.00,12.000000,,2013-05-10 04:12:00,
2013-05-09 22:33:00,58.0,44.0,-100.00,South,171,2.0,6.0,60,0.00,,,0.00,0.000000,,2013-05-10 04:33:00,
2013-05-09 22:43:00,58.0,44.0,-100.00,South,171,2.0,6.0,60,0.00,,,0.00,0.000000,,2013-05-10 04:43:00,
2013-05-09 22:53:00,58.0,44.0,-100.00,South,171,2.0,6.0,60,0.00,,,0.00,0.000000,,2013-05-10 04:53:00,
2013-05-09 23:02:00,58.0,44.0,-100.00,South,171,2.0,6.0,60,0.00,,,0.00,0.000000,,2013-05-10 05:02:00,
2013-05-09 23:12:00,58.0,44.0,-100.00,South,171,2.0,6.0,60,0.00,,,0.00,0.000000,,2013-05-10 05:12:00,
2013-05-09 23:42:00,54.0,44.0,-100.00,SE,146,1.0,5.0,68,0.00,,,0.00,0.000000,,2013-05-10 05:42:00,
2013-05-09 23:52:00,54.0,44.0,-100.00,SE,146,1.0,5.0,68,0.00,,,0.00,0.000000,,2013-05-10 05:52:00,